sensor_id;sensor_type;location;lat;lon;timestamp;pressure;altitude;pressure_sealevel;temperature;humidity
62617;BME280;62539;51.190;6.808;2022-12-31T00:01:54;100221.94;;;19.29;57.17
62617;BME280;62539;51.190;6.808;2022-12-31T00:04:19;100221.09;;;19.29;57.13
62617;BME280;62539;51.190;6.808;2022-12-31T00:06:45;100218.53;;;19.27;57.14
62617;BME280;62539;51.190;6.808;2022-12-31T00:09:11;100221.31;;;19.24;57.31
62617;BME280;62539;51.190;6.808;2022-12-31T00:11:37;100225.78;;;19.22;57.22
62617;BME280;62539;51.190;6.808;2022-12-31T00:14:03;100219.69;;;19.21;57.26
62617;BME280;62539;51.190;6.808;2022-12-31T00:16:32;100217.13;;;19.20;57.28
62617;BME280;62539;51.190;6.808;2022-12-31T00:19:01;100218.97;;;19.18;57.15
62617;BME280;62539;51.190;6.808;2022-12-31T00:21:29;100217.25;;;19.17;57.31
62617;BME280;62539;51.190;6.808;2022-12-31T00:23:56;100210.28;;;19.16;57.28
62617;BME280;62539;51.190;6.808;2022-12-31T00:26:24;100216.47;;;19.15;57.50
62617;BME280;62539;51.190;6.808;2022-12-31T00:28:52;100206.03;;;19.13;57.25
62617;BME280;62539;51.190;6.808;2022-12-31T00:31:21;100205.16;;;19.13;57.29
62617;BME280;62539;51.190;6.808;2022-12-31T00:33:49;100205.25;;;19.11;57.44
62617;BME280;62539;51.190;6.808;2022-12-31T00:36:21;100200.06;;;19.09;57.50
62617;BME280;62539;51.190;6.808;2022-12-31T00:38:50;100199.22;;;19.09;57.37
62617;BME280;62539;51.190;6.808;2022-12-31T00:41:18;100201.91;;;19.07;57.46
62617;BME280;62539;51.190;6.808;2022-12-31T00:43:44;100208.16;;;19.05;57.46
62617;BME280;62539;51.190;6.808;2022-12-31T00:46:11;100193.31;;;19.04;57.28
62617;BME280;62539;51.190;6.808;2022-12-31T00:48:37;100193.38;;;19.02;57.52
62617;BME280;62539;51.190;6.808;2022-12-31T00:51:04;100195.16;;;19.02;57.48
62617;BME280;62539;51.190;6.808;2022-12-31T00:53:32;100187.41;;;18.99;57.51
62617;BME280;62539;51.190;6.808;2022-12-31T00:56:01;100183.91;;;18.98;57.59
62617;BME280;62539;51.190;6.808;2022-12-31T00:58:28;100176.13;;;18.97;57.65
62617;BME280;62539;51.190;6.808;2022-12-31T01:00:54;100171.75;;;18.95;57.74
62617;BME280;62539;51.190;6.808;2022-12-31T01:03:19;100172.59;;;18.96;57.56
62617;BME280;62539;51.190;6.808;2022-12-31T01:05:45;100177.06;;;18.94;57.70
62617;BME280;62539;51.190;6.808;2022-12-31T01:08:10;100173.66;;;18.92;57.66
62617;BME280;62539;51.190;6.808;2022-12-31T01:10:36;100164.94;;;18.91;57.68
62617;BME280;62539;51.190;6.808;2022-12-31T01:13:20;100162.34;;;18.90;57.83
62617;BME280;62539;51.190;6.808;2022-12-31T01:15:45;100161.56;;;18.88;57.98
62617;BME280;62539;51.190;6.808;2022-12-31T01:18:11;100171.25;;;18.87;57.65
62617;BME280;62539;51.190;6.808;2022-12-31T01:20:39;100167.75;;;18.87;57.64
62617;BME280;62539;51.190;6.808;2022-12-31T01:23:07;100166.03;;;18.86;57.64
62617;BME280;62539;51.190;6.808;2022-12-31T01:25:37;100167.91;;;18.84;57.38
62617;BME280;62539;51.190;6.808;2022-12-31T01:28:06;100159.09;;;18.85;57.74
62617;BME280;62539;51.190;6.808;2022-12-31T01:30:33;100172.31;;;18.83;57.80
62617;BME280;62539;51.190;6.808;2022-12-31T01:33:01;100167.09;;;18.81;57.93
62617;BME280;62539;51.190;6.808;2022-12-31T01:35:27;100160.16;;;18.80;57.94
62617;BME280;62539;51.190;6.808;2022-12-31T01:37:52;100154.88;;;18.80;57.81
62617;BME280;62539;51.190;6.808;2022-12-31T01:40:19;100159.38;;;18.78;57.78
62617;BME280;62539;51.190;6.808;2022-12-31T01:42:44;100170.75;;;18.79;57.88
62617;BME280;62539;51.190;6.808;2022-12-31T01:45:17;100173.44;;;18.77;57.85
62617;BME280;62539;51.190;6.808;2022-12-31T01:47:54;100166.59;;;18.73;57.94
62617;BME280;62539;51.190;6.808;2022-12-31T01:50:28;100170.16;;;18.72;57.94
62617;BME280;62539;51.190;6.808;2022-12-31T01:52:59;100172.72;;;18.74;57.91
62617;BME280;62539;51.190;6.808;2022-12-31T01:55:36;100170.16;;;18.72;57.87
62617;BME280;62539;51.190;6.808;2022-12-31T01:58:09;100180.16;;;18.64;58.19
62617;BME280;62539;51.190;6.808;2022-12-31T02:00:38;100189.59;;;18.68;57.93
62617;BME280;62539;51.190;6.808;2022-12-31T02:03:05;100194.84;;;18.68;57.96
62617;BME280;62539;51.190;6.808;2022-12-31T02:05:38;100194.06;;;18.66;57.95
62617;BME280;62539;51.190;6.808;2022-12-31T02:08:10;100198.41;;;18.67;58.09
62617;BME280;62539;51.190;6.808;2022-12-31T02:10:36;100187.91;;;18.67;58.18
62617;BME280;62539;51.190;6.808;2022-12-31T02:13:02;100198.41;;;18.67;57.96
62617;BME280;62539;51.190;6.808;2022-12-31T02:15:40;100194.06;;;18.66;58.06
62617;BME280;62539;51.190;6.808;2022-12-31T02:18:46;100188.13;;;18.62;58.13
62617;BME280;62539;51.190;6.808;2022-12-31T02:21:39;100167.94;;;18.63;58.03
62617;BME280;62539;51.190;6.808;2022-12-31T02:24:29;100179.22;;;18.65;58.13
62617;BME280;62539;51.190;6.808;2022-12-31T02:27:18;100170.56;;;18.63;58.10
62617;BME280;62539;51.190;6.808;2022-12-31T02:30:25;100174.25;;;18.59;58.23
62617;BME280;62539;51.190;6.808;2022-12-31T02:33:03;100181.94;;;18.63;58.05
62617;BME280;62539;51.190;6.808;2022-12-31T02:35:38;100185.34;;;18.65;57.94
62617;BME280;62539;51.190;6.808;2022-12-31T02:38:13;100184.47;;;18.65;58.03
62617;BME280;62539;51.190;6.808;2022-12-31T02:40:43;100188.81;;;18.66;58.05
62617;BME280;62539;51.190;6.808;2022-12-31T02:43:09;100193.16;;;18.67;57.96
62617;BME280;62539;51.190;6.808;2022-12-31T02:45:49;100183.66;;;18.64;57.88
62617;BME280;62539;51.190;6.808;2022-12-31T02:48:39;100191.56;;;18.63;57.81
62617;BME280;62539;51.190;6.808;2022-12-31T02:51:39;100203.78;;;18.64;57.95
62617;BME280;62539;51.190;6.808;2022-12-31T02:54:38;100197.63;;;18.65;57.75
62617;BME280;62539;51.190;6.808;2022-12-31T02:57:29;100199.31;;;18.66;58.03
62617;BME280;62539;51.190;6.808;2022-12-31T03:00:14;100195.78;;;18.67;57.77
62617;BME280;62539;51.190;6.808;2022-12-31T03:03:00;100200.09;;;18.68;57.71
62617;BME280;62539;51.190;6.808;2022-12-31T03:05:29;100207.16;;;18.68;57.61
62617;BME280;62539;51.190;6.808;2022-12-31T03:07:57;100213.25;;;18.68;57.74
62617;BME280;62539;51.190;6.808;2022-12-31T03:10:23;100200.09;;;18.68;57.82
62617;BME280;62539;51.190;6.808;2022-12-31T03:12:49;100207.94;;;18.70;57.74
62617;BME280;62539;51.190;6.808;2022-12-31T03:20:45;100217.53;;;18.71;57.62
62617;BME280;62539;51.190;6.808;2022-12-31T03:23:34;100211.41;;;18.70;57.67
62617;BME280;62539;51.190;6.808;2022-12-31T03:26:03;100214.81;;;18.72;57.53
62617;BME280;62539;51.190;6.808;2022-12-31T03:28:38;100221.00;;;18.71;57.57
62617;BME280;62539;51.190;6.808;2022-12-31T03:31:05;100207.84;;;18.71;57.66
62617;BME280;62539;51.190;6.808;2022-12-31T03:33:32;100227.97;;;18.72;57.55
62617;BME280;62539;51.190;6.808;2022-12-31T03:36:04;100213.09;;;18.71;57.62
62617;BME280;62539;51.190;6.808;2022-12-31T03:38:31;100225.31;;;18.72;57.74
62617;BME280;62539;51.190;6.808;2022-12-31T03:40:57;100222.69;;;18.72;57.58
62617;BME280;62539;51.190;6.808;2022-12-31T03:43:22;100227.13;;;18.72;57.54
62617;BME280;62539;51.190;6.808;2022-12-31T03:45:51;100235.84;;;18.72;57.48
62617;BME280;62539;51.190;6.808;2022-12-31T03:48:20;100235.84;;;18.72;57.55
62617;BME280;62539;51.190;6.808;2022-12-31T03:50:46;100241.09;;;18.72;57.61
62617;BME280;62539;51.190;6.808;2022-12-31T03:53:12;100227.97;;;18.72;57.45
62617;BME280;62539;51.190;6.808;2022-12-31T03:55:38;100227.13;;;18.72;57.43
62617;BME280;62539;51.190;6.808;2022-12-31T03:58:03;100229.66;;;18.73;57.49
62617;BME280;62539;51.190;6.808;2022-12-31T04:00:29;100241.97;;;18.73;57.41
62617;BME280;62539;51.190;6.808;2022-12-31T04:02:54;100230.59;;;18.72;57.47
62617;BME280;62539;51.190;6.808;2022-12-31T04:05:20;100229.66;;;18.73;57.30
62617;BME280;62539;51.190;6.808;2022-12-31T04:07:46;100228.81;;;18.73;57.36
62617;BME280;62539;51.190;6.808;2022-12-31T04:10:14;100228.81;;;18.73;57.46
62617;BME280;62539;51.190;6.808;2022-12-31T04:12:42;100235.78;;;18.74;57.37
62617;BME280;62539;51.190;6.808;2022-12-31T04:15:10;100226.19;;;18.73;57.47
62617;BME280;62539;51.190;6.808;2022-12-31T04:17:39;100216.53;;;18.73;57.36
62617;BME280;62539;51.190;6.808;2022-12-31T04:20:05;100223.56;;;18.73;57.39
62617;BME280;62539;51.190;6.808;2022-12-31T04:22:31;100208.63;;;18.73;57.45
62617;BME280;62539;51.190;6.808;2022-12-31T04:24:56;100217.44;;;18.72;57.33
62617;BME280;62539;51.190;6.808;2022-12-31T04:27:22;100227.97;;;18.72;57.48
62617;BME280;62539;51.190;6.808;2022-12-31T04:29:47;100223.63;;;18.71;57.38
62617;BME280;62539;51.190;6.808;2022-12-31T04:32:13;100234.13;;;18.71;57.41
62617;BME280;62539;51.190;6.808;2022-12-31T04:34:38;100247.25;;;18.71;57.26
62617;BME280;62539;51.190;6.808;2022-12-31T04:37:04;100242.00;;;18.71;57.23
62617;BME280;62539;51.190;6.808;2022-12-31T04:39:29;100235.06;;;18.70;57.38
62617;BME280;62539;51.190;6.808;2022-12-31T04:41:54;100242.94;;;18.70;57.41
62617;BME280;62539;51.190;6.808;2022-12-31T04:44:20;100242.94;;;18.70;57.27
62617;BME280;62539;51.190;6.808;2022-12-31T04:46:46;100242.00;;;18.71;57.26
62617;BME280;62539;51.190;6.808;2022-12-31T04:49:11;100256.94;;;18.71;57.39
62617;BME280;62539;51.190;6.808;2022-12-31T04:51:37;100240.31;;;18.70;57.32
62617;BME280;62539;51.190;6.808;2022-12-31T04:54:03;100255.16;;;18.71;57.36
62617;BME280;62539;51.190;6.808;2022-12-31T04:56:29;100256.94;;;18.71;57.16
62617;BME280;62539;51.190;6.808;2022-12-31T04:58:56;100257.84;;;18.70;57.26
62617;BME280;62539;51.190;6.808;2022-12-31T05:01:22;100257.84;;;18.70;57.27
62617;BME280;62539;51.190;6.808;2022-12-31T05:03:48;100263.13;;;18.70;57.22
62617;BME280;62539;51.190;6.808;2022-12-31T05:06:19;100262.19;;;18.71;57.33
62617;BME280;62539;51.190;6.808;2022-12-31T05:08:46;100269.22;;;18.70;57.44
62617;BME280;62539;51.190;6.808;2022-12-31T05:11:12;100267.44;;;18.71;57.38
62617;BME280;62539;51.190;6.808;2022-12-31T05:13:38;100267.38;;;18.72;57.53
62617;BME280;62539;51.190;6.808;2022-12-31T05:16:04;100255.00;;;18.74;57.31
62617;BME280;62539;51.190;6.808;2022-12-31T05:18:31;100262.78;;;18.77;57.36
62617;BME280;62539;51.190;6.808;2022-12-31T05:20:57;100261.78;;;18.80;57.39
62617;BME280;62539;51.190;6.808;2022-12-31T05:23:23;100266.03;;;18.83;57.30
62617;BME280;62539;51.190;6.808;2022-12-31T05:25:49;100258.13;;;18.84;57.07
62617;BME280;62539;51.190;6.808;2022-12-31T05:28:16;100271.16;;;18.86;56.99
62617;BME280;62539;51.190;6.808;2022-12-31T05:30:42;100277.22;;;18.88;57.19
62617;BME280;62539;51.190;6.808;2022-12-31T05:33:08;100262.38;;;18.87;57.09
62617;BME280;62539;51.190;6.808;2022-12-31T05:35:34;100279.78;;;18.89;57.12
62617;BME280;62539;51.190;6.808;2022-12-31T05:38:00;100277.16;;;18.89;57.01
62617;BME280;62539;51.190;6.808;2022-12-31T05:40:26;100293.75;;;18.90;57.07
62617;BME280;62539;51.190;6.808;2022-12-31T05:42:52;100289.38;;;18.90;57.02
62617;BME280;62539;51.190;6.808;2022-12-31T05:45:17;100286.75;;;18.90;56.99
62617;BME280;62539;51.190;6.808;2022-12-31T05:47:44;100297.25;;;18.90;57.16
62617;BME280;62539;51.190;6.808;2022-12-31T05:50:12;100270.97;;;18.90;56.99
62617;BME280;62539;51.190;6.808;2022-12-31T05:52:42;100272.75;;;18.90;57.00
62617;BME280;62539;51.190;6.808;2022-12-31T05:55:09;100284.19;;;18.89;57.11
62617;BME280;62539;51.190;6.808;2022-12-31T05:57:35;100270.13;;;18.90;57.01
62617;BME280;62539;51.190;6.808;2022-12-31T06:00:03;100291.13;;;18.90;56.99
62617;BME280;62539;51.190;6.808;2022-12-31T06:02:30;100285.84;;;18.91;57.01
62617;BME280;62539;51.190;6.808;2022-12-31T06:04:55;100296.34;;;18.91;57.08
62617;BME280;62539;51.190;6.808;2022-12-31T06:07:21;100296.34;;;18.91;57.02
62617;BME280;62539;51.190;6.808;2022-12-31T06:09:46;100312.13;;;18.91;56.87
62617;BME280;62539;51.190;6.808;2022-12-31T06:12:12;100291.09;;;18.91;56.82
62617;BME280;62539;51.190;6.808;2022-12-31T06:14:37;100310.31;;;18.92;56.89
62617;BME280;62539;51.190;6.808;2022-12-31T06:17:02;100318.22;;;18.92;57.26
62617;BME280;62539;51.190;6.808;2022-12-31T06:19:28;100310.31;;;18.92;56.66
62617;BME280;62539;51.190;6.808;2022-12-31T06:21:53;100314.78;;;18.90;56.91
62617;BME280;62539;51.190;6.808;2022-12-31T06:24:19;100313.09;;;18.89;57.11
62617;BME280;62539;51.190;6.808;2022-12-31T06:26:44;100326.22;;;18.89;57.09
62617;BME280;62539;51.190;6.808;2022-12-31T06:29:09;100336.75;;;18.89;57.11
62617;BME280;62539;51.190;6.808;2022-12-31T06:31:35;100341.16;;;18.88;56.94
62617;BME280;62539;51.190;6.808;2022-12-31T06:34:01;100339.38;;;18.89;56.94
62617;BME280;62539;51.190;6.808;2022-12-31T06:36:27;100340.25;;;18.89;57.10
62617;BME280;62539;51.190;6.808;2022-12-31T06:38:52;100343.69;;;18.90;57.09
62617;BME280;62539;51.190;6.808;2022-12-31T06:41:19;100352.50;;;18.89;57.11
62617;BME280;62539;51.190;6.808;2022-12-31T06:43:45;100353.38;;;18.89;57.20
62617;BME280;62539;51.190;6.808;2022-12-31T06:46:13;100351.59;;;18.90;57.24
62617;BME280;62539;51.190;6.808;2022-12-31T06:48:41;100361.25;;;18.89;56.99
62617;BME280;62539;51.190;6.808;2022-12-31T06:51:11;100365.66;;;18.89;56.99
62617;BME280;62539;51.190;6.808;2022-12-31T06:53:38;100363.03;;;18.89;56.80
62617;BME280;62539;51.190;6.808;2022-12-31T06:56:12;100377.88;;;18.90;57.05
62617;BME280;62539;51.190;6.808;2022-12-31T06:58:41;100374.41;;;18.89;57.14
62617;BME280;62539;51.190;6.808;2022-12-31T07:10:28;100366.78;;;18.83;56.90
62617;BME280;62539;51.190;6.808;2022-12-31T07:16:33;100371.97;;;18.85;56.92
62617;BME280;62539;51.190;6.808;2022-12-31T07:19:30;100377.22;;;18.85;56.93
62617;BME280;62539;51.190;6.808;2022-12-31T07:22:14;100391.94;;;18.89;56.67
62617;BME280;62539;51.190;6.808;2022-12-31T07:24:42;100386.53;;;18.92;56.68
62617;BME280;62539;51.190;6.808;2022-12-31T07:31:02;100387.47;;;18.91;56.80
62617;BME280;62539;51.190;6.808;2022-12-31T07:33:42;100381.16;;;18.95;56.75
62617;BME280;62539;51.190;6.808;2022-12-31T07:36:24;100387.19;;;18.99;56.81
62617;BME280;62539;51.190;6.808;2022-12-31T07:39:13;100395.13;;;18.97;56.62
62617;BME280;62539;51.190;6.808;2022-12-31T07:41:52;100383.66;;;19.00;56.82
62617;BME280;62539;51.190;6.808;2022-12-31T07:44:51;100383.78;;;18.97;56.82
62617;BME280;62539;51.190;6.808;2022-12-31T07:47:26;100386.19;;;19.01;56.76
62617;BME280;62539;51.190;6.808;2022-12-31T07:49:54;100386.97;;;19.03;56.64
62617;BME280;62539;51.190;6.808;2022-12-31T07:52:20;100394.88;;;19.03;56.66
62617;BME280;62539;51.190;6.808;2022-12-31T07:54:47;100405.38;;;19.03;56.74
62617;BME280;62539;51.190;6.808;2022-12-31T07:57:15;100400.00;;;19.06;56.53
62617;BME280;62539;51.190;6.808;2022-12-31T08:08:48;100420.31;;;19.03;56.63
62617;BME280;62539;51.190;6.808;2022-12-31T08:11:31;100420.19;;;19.06;56.54
62617;BME280;62539;51.190;6.808;2022-12-31T08:14:10;100425.38;;;19.07;56.57
62617;BME280;62539;51.190;6.808;2022-12-31T08:16:37;100435.03;;;19.07;56.49
62617;BME280;62539;51.190;6.808;2022-12-31T08:19:03;100435.84;;;19.09;56.60
62617;BME280;62539;51.190;6.808;2022-12-31T08:21:45;100442.06;;;19.06;56.69
62617;BME280;62539;51.190;6.808;2022-12-31T08:24:51;100433.25;;;19.07;56.45
62617;BME280;62539;51.190;6.808;2022-12-31T08:27:38;100433.25;;;19.07;56.54
62617;BME280;62539;51.190;6.808;2022-12-31T08:30:18;100436.66;;;19.09;56.54
62617;BME280;62539;51.190;6.808;2022-12-31T08:32:57;100447.19;;;19.09;56.42
62617;BME280;62539;51.190;6.808;2022-12-31T08:38:54;100441.09;;;19.09;56.51
62617;BME280;62539;51.190;6.808;2022-12-31T08:41:30;100444.56;;;19.09;56.63
62617;BME280;62539;51.190;6.808;2022-12-31T08:44:07;100451.91;;;19.01;56.85
62617;BME280;62539;51.190;6.808;2022-12-31T08:50:02;100474.53;;;19.05;56.87
62617;BME280;62539;51.190;6.808;2022-12-31T08:52:28;100470.13;;;19.06;56.87
62617;BME280;62539;51.190;6.808;2022-12-31T08:54:54;100478.88;;;19.06;56.86
62617;BME280;62539;51.190;6.808;2022-12-31T08:57:31;100481.56;;;19.05;57.02
62617;BME280;62539;51.190;6.808;2022-12-31T09:00:10;100472.69;;;19.07;57.40
62617;BME280;62539;51.190;6.808;2022-12-31T09:05:55;100473.22;;;19.16;58.75
62617;BME280;62539;51.190;6.808;2022-12-31T09:12:25;100478.09;;;19.25;60.33
62617;BME280;62539;51.190;6.808;2022-12-31T09:15:15;100488.50;;;19.28;59.33
62617;BME280;62539;51.190;6.808;2022-12-31T09:17:44;100504.22;;;19.30;58.96
62617;BME280;62539;51.190;6.808;2022-12-31T09:22:48;100520.03;;;19.28;58.38
62617;BME280;62539;51.190;6.808;2022-12-31T09:25:16;100527.94;;;19.28;58.07
62617;BME280;62539;51.190;6.808;2022-12-31T09:27:54;100534.13;;;19.27;57.94
62617;BME280;62539;51.190;6.808;2022-12-31T09:30:36;100555.94;;;19.29;57.93
62617;BME280;62539;51.190;6.808;2022-12-31T09:33:25;100550.81;;;19.26;57.84
62617;BME280;62539;51.190;6.808;2022-12-31T09:36:05;100560.28;;;19.30;58.31
62617;BME280;62539;51.190;6.808;2022-12-31T09:38:43;100564.72;;;19.30;58.78
62617;BME280;62539;51.190;6.808;2022-12-31T09:41:50;100563.00;;;19.29;59.72
62617;BME280;62539;51.190;6.808;2022-12-31T09:50:49;100579.50;;;19.32;58.14
62617;BME280;62539;51.190;6.808;2022-12-31T09:56:28;100574.13;;;19.35;58.46
62617;BME280;62539;51.190;6.808;2022-12-31T09:59:22;100568.97;;;19.32;58.17
62617;BME280;62539;51.190;6.808;2022-12-31T10:05:30;100595.28;;;19.32;58.16
62617;BME280;62539;51.190;6.808;2022-12-31T10:17:29;100592.94;;;19.47;57.91
62617;BME280;62539;51.190;6.808;2022-12-31T10:31:41;100601.75;;;19.46;57.45
62617;BME280;62539;51.190;6.808;2022-12-31T10:34:42;100607.25;;;19.39;57.57
62617;BME280;62539;51.190;6.808;2022-12-31T10:37:19;100597.50;;;19.43;57.33
62617;BME280;62539;51.190;6.808;2022-12-31T10:55:02;100598.19;;;19.47;57.00
62617;BME280;62539;51.190;6.808;2022-12-31T10:57:50;100596.38;;;19.49;57.18
62617;BME280;62539;51.190;6.808;2022-12-31T11:00:22;100584.63;;;19.58;57.17
62617;BME280;62539;51.190;6.808;2022-12-31T11:12:04;100592.56;;;19.56;56.83
62617;BME280;62539;51.190;6.808;2022-12-31T11:15:12;100595.84;;;19.61;57.06
62617;BME280;62539;51.190;6.808;2022-12-31T11:26:46;100604.53;;;19.63;55.51
62617;BME280;62539;51.190;6.808;2022-12-31T11:32:51;100595.41;;;19.51;56.20
62617;BME280;62539;51.190;6.808;2022-12-31T11:41:51;100585.97;;;19.46;56.72
62617;BME280;62539;51.190;6.808;2022-12-31T11:47:38;100603.09;;;19.56;57.30
62617;BME280;62539;51.190;6.808;2022-12-31T11:50:30;100599.41;;;19.60;57.17
62617;BME280;62539;51.190;6.808;2022-12-31T11:56:03;100581.78;;;19.62;57.54
62617;BME280;62539;51.190;6.808;2022-12-31T11:58:45;100600.84;;;19.67;57.83
62617;BME280;62539;51.190;6.808;2022-12-31T12:01:31;100602.56;;;19.68;57.49
62617;BME280;62539;51.190;6.808;2022-12-31T12:04:00;100590.19;;;19.71;57.38
62617;BME280;62539;51.190;6.808;2022-12-31T12:06:29;100587.56;;;19.71;57.00
62617;BME280;62539;51.190;6.808;2022-12-31T12:08:59;100595.47;;;19.71;57.18
62617;BME280;62539;51.190;6.808;2022-12-31T12:11:31;100603.31;;;19.72;57.25
62617;BME280;62539;51.190;6.808;2022-12-31T12:13:59;100602.31;;;19.75;57.68
62617;BME280;62539;51.190;6.808;2022-12-31T12:16:25;100581.22;;;19.76;58.22
62617;BME280;62539;51.190;6.808;2022-12-31T12:19:04;100588.22;;;19.76;59.66
62617;BME280;62539;51.190;6.808;2022-12-31T12:21:32;100573.09;;;19.81;59.02
62617;BME280;62539;51.190;6.808;2022-12-31T12:24:05;100594.03;;;19.84;59.37
62617;BME280;62539;51.190;6.808;2022-12-31T12:26:44;100586.00;;;19.87;59.38
62617;BME280;62539;51.190;6.808;2022-12-31T12:29:28;100583.44;;;19.86;60.20
62617;BME280;62539;51.190;6.808;2022-12-31T12:34:32;100594.44;;;19.95;59.64
62617;BME280;62539;51.190;6.808;2022-12-31T12:36:59;100586.50;;;19.97;59.77
62617;BME280;62539;51.190;6.808;2022-12-31T12:39:27;100584.56;;;20.01;60.13
62617;BME280;62539;51.190;6.808;2022-12-31T12:42:09;100574.84;;;20.03;60.64
62617;BME280;62539;51.190;6.808;2022-12-31T12:44:38;100588.50;;;20.11;60.06
62617;BME280;62539;51.190;6.808;2022-12-31T12:47:07;100590.97;;;20.16;60.32
62617;BME280;62539;51.190;6.808;2022-12-31T12:49:47;100597.94;;;20.17;60.95
62617;BME280;62539;51.190;6.808;2022-12-31T13:01:03;100606.53;;;20.20;59.71
62617;BME280;62539;51.190;6.808;2022-12-31T13:09:57;100641.06;;;20.14;59.99
62617;BME280;62539;51.190;6.808;2022-12-31T13:12:56;100631.13;;;20.21;59.99
62617;BME280;62539;51.190;6.808;2022-12-31T13:15:40;100628.34;;;20.24;60.20
62617;BME280;62539;51.190;6.808;2022-12-31T13:24:10;100630.50;;;20.35;60.18
62617;BME280;62539;51.190;6.808;2022-12-31T13:26:59;100639.41;;;20.32;60.16
62617;BME280;62539;51.190;6.808;2022-12-31T13:29:29;100637.34;;;20.39;59.80
62617;BME280;62539;51.190;6.808;2022-12-31T13:32:01;100627.59;;;20.41;60.06
62617;BME280;62539;51.190;6.808;2022-12-31T13:34:32;100638.00;;;20.44;59.96
62617;BME280;62539;51.190;6.808;2022-12-31T13:37:04;100622.97;;;20.46;60.28
62617;BME280;62539;51.190;6.808;2022-12-31T13:39:47;100633.47;;;20.48;59.84
62617;BME280;62539;51.190;6.808;2022-12-31T13:42:36;100622.13;;;20.46;59.95
62617;BME280;62539;51.190;6.808;2022-12-31T13:45:17;100635.03;;;20.52;60.04
62617;BME280;62539;51.190;6.808;2022-12-31T13:47:51;100626.91;;;20.56;59.89
62617;BME280;62539;51.190;6.808;2022-12-31T13:50:35;100627.69;;;20.59;60.02
62617;BME280;62539;51.190;6.808;2022-12-31T13:53:34;100631.09;;;20.61;60.41
62617;BME280;62539;51.190;6.808;2022-12-31T13:56:12;100652.84;;;20.66;60.08
62617;BME280;62539;51.190;6.808;2022-12-31T13:59:04;100634.47;;;20.64;60.04
62617;BME280;62539;51.190;6.808;2022-12-31T14:01:48;100642.25;;;20.67;60.07
62617;BME280;62539;51.190;6.808;2022-12-31T14:04:27;100640.44;;;20.68;59.51
62617;BME280;62539;51.190;6.808;2022-12-31T14:07:21;100650.22;;;20.66;59.23
62617;BME280;62539;51.190;6.808;2022-12-31T14:09:53;100640.44;;;20.68;58.92
62617;BME280;62539;51.190;6.808;2022-12-31T14:12:33;100628.19;;;20.67;59.10
62617;BME280;62539;51.190;6.808;2022-12-31T14:18:21;100605.41;;;20.66;58.69
62617;BME280;62539;51.190;6.808;2022-12-31T14:21:17;100613.44;;;20.63;58.57
62617;BME280;62539;51.190;6.808;2022-12-31T14:23:52;100612.53;;;20.64;58.63
62617;BME280;62539;51.190;6.808;2022-12-31T14:26:37;100613.59;;;20.60;58.70
62617;BME280;62539;51.190;6.808;2022-12-31T14:31:42;100626.75;;;20.60;58.69
62617;BME280;62539;51.190;6.808;2022-12-31T14:34:31;100632.03;;;20.60;59.00
62617;BME280;62539;51.190;6.808;2022-12-31T14:37:36;100632.31;;;20.53;59.35
62617;BME280;62539;51.190;6.808;2022-12-31T14:40:24;100639.38;;;20.53;59.19
62617;BME280;62539;51.190;6.808;2022-12-31T14:43:16;100635.03;;;20.52;59.06
62617;BME280;62539;51.190;6.808;2022-12-31T14:48:52;100636.75;;;20.53;59.63
62617;BME280;62539;51.190;6.808;2022-12-31T14:51:27;100635.88;;;20.52;59.79
62617;BME280;62539;51.190;6.808;2022-12-31T14:53:54;100629.69;;;20.53;60.08
62617;BME280;62539;51.190;6.808;2022-12-31T14:56:41;100632.59;;;20.47;60.69
62617;BME280;62539;51.190;6.808;2022-12-31T14:59:26;100623.91;;;20.45;60.43
62617;BME280;62539;51.190;6.808;2022-12-31T15:01:54;100627.31;;;20.47;60.02
62617;BME280;62539;51.190;6.808;2022-12-31T15:04:44;100622.31;;;20.41;59.70
62617;BME280;62539;51.190;6.808;2022-12-31T15:07:17;100638.13;;;20.41;59.75
62617;BME280;62539;51.190;6.808;2022-12-31T15:19:23;100642.75;;;20.36;59.20
62617;BME280;62539;51.190;6.808;2022-12-31T15:22:38;100636.81;;;20.31;59.25
62617;BME280;62539;51.190;6.808;2022-12-31T15:28:04;100652.75;;;20.27;58.95
62617;BME280;62539;51.190;6.808;2022-12-31T15:30:42;100661.59;;;20.26;59.15
62617;BME280;62539;51.190;6.808;2022-12-31T15:33:31;100660.81;;;20.24;59.22
62617;BME280;62539;51.190;6.808;2022-12-31T15:36:14;100657.47;;;20.21;58.93
62617;BME280;62539;51.190;6.808;2022-12-31T15:38:40;100649.47;;;20.22;58.87
62617;BME280;62539;51.190;6.808;2022-12-31T15:41:25;100666.34;;;20.18;59.19
62617;BME280;62539;51.190;6.808;2022-12-31T15:44:07;100667.13;;;20.20;59.06
62617;BME280;62539;51.190;6.808;2022-12-31T15:46:54;100662.00;;;20.17;58.99
62617;BME280;62539;51.190;6.808;2022-12-31T15:49:24;100656.72;;;20.17;58.86
62617;BME280;62539;51.190;6.808;2022-12-31T15:52:02;100654.16;;;20.16;59.02
62617;BME280;62539;51.190;6.808;2022-12-31T15:54:35;100658.56;;;20.15;58.71
62617;BME280;62539;51.190;6.808;2022-12-31T15:57:04;100658.56;;;20.15;59.04
62617;BME280;62539;51.190;6.808;2022-12-31T15:59:35;100651.59;;;20.14;59.02
62617;BME280;62539;51.190;6.808;2022-12-31T16:02:02;100657.78;;;20.13;58.84
62617;BME280;62539;51.190;6.808;2022-12-31T16:04:29;100661.41;;;20.10;58.86
62617;BME280;62539;51.190;6.808;2022-12-31T16:07:01;100641.19;;;20.11;58.76
62617;BME280;62539;51.190;6.808;2022-12-31T16:09:32;100656.19;;;20.09;58.92
62617;BME280;62539;51.190;6.808;2022-12-31T16:12:01;100653.56;;;20.09;59.28
62617;BME280;62539;51.190;6.808;2022-12-31T16:14:36;100651.84;;;20.08;59.27
62617;BME280;62539;51.190;6.808;2022-12-31T16:17:05;100658.00;;;20.08;59.14
62617;BME280;62539;51.190;6.808;2022-12-31T16:19:41;100651.97;;;20.05;59.52